Portada
METAR-TAF:

METAR-TAF

Aeroports :

Aeroport de Melilla

Melilla, Espanya

latitud: 35-17N, longitud: 002-57W, altitud: 47 m

Observació

L'informe es va fer fa 20 minuts, a les 09:00 UTC
Vent 11 kt del Est, variant entre Est/Nord-Est i Est/Sud-Est
Temperatura 26°C
Humitat 79%
Pressió 1014 hPa
Visibilitat 10 km o més
Escasses núvols a una alçada de 1200 ft

METAR: GEML 120900Z 08011KT 060V120 9999 FEW012 26/22 Q1014

Hora: 11:20 (09:20 UTC)

Pronòstic

L'informe es va fer fa 1 hora i 20 minuts, a les 08:00 UTC
Pronòstic vàlid del 12 a les 09 UTC al 13 a les 09 UTC
Vent 9 kt del Est
Visibilitat 10 km o més
Escasses núvols a una alçada de 1500 ft
Probabilitat 40% :
Temporalment
l' 12 a les 10 UTC al 12 a les 13 UTC
Vent 16 kt del Sud-Est amb ràfegues de 30 kt
Temporalment
l' 12 a les 20 UTC al 13 a les 09 UTC
Cel ennuvolat a una alçada de 1000 ft

TAF: GEML 120800Z 1209/1309 09009KT 9999 FEW015 TX28/1214Z TN23/1305Z PROB40 TEMPO 1210/1213 13016G30KT TEMPO 1220/1309 BKN010

Observacions i pronòstics meteorològics de més de 4000 aeroports (METAR i TAF).

Les estacions disponibles són els punts grocs i vermells al mapa.

Posi el ratolí al punt desitjat per veure el nom de l'estació.

Feu clic per veure les observacions i els pronòstics meteorològics.

Per canviar el mapa: feu clic els botons verds amb una creu de color negre per apropar; al botó verd amb un guió per allunyar la imatge; o en les fletxes verdes per a mapes adjacents.


METAR-TAF: